createdAt,value
2022-09-03T00:00:38.494Z,0.00
2022-09-03T00:01:38.494Z,0.00
2022-09-03T00:02:38.446Z,0.00
2022-09-03T00:03:38.410Z,0.00
2022-09-03T00:04:38.383Z,0.00
2022-09-03T00:05:38.415Z,0.00
2022-09-03T00:06:38.453Z,0.00
2022-09-03T00:07:38.378Z,0.00
2022-09-03T00:08:38.363Z,0.00
2022-09-03T00:09:38.375Z,0.00
2022-09-03T00:10:38.416Z,0.00
2022-09-03T00:11:38.329Z,0.00
2022-09-03T00:12:38.317Z,0.00
2022-09-03T00:13:38.295Z,0.00
2022-09-03T00:14:38.246Z,0.00
2022-09-03T00:15:38.271Z,0.00
2022-09-03T00:16:39.187Z,0.00
2022-09-03T00:17:38.412Z,0.00
2022-09-03T00:18:38.237Z,0.00
2022-09-03T00:19:38.399Z,0.00
2022-09-03T00:20:38.195Z,0.00
2022-09-03T00:21:38.257Z,0.00
2022-09-03T00:22:38.298Z,0.00
2022-09-03T00:23:38.219Z,0.00
2022-09-03T00:24:38.122Z,0.00
2022-09-03T00:25:38.162Z,0.00
2022-09-03T00:26:38.101Z,0.00
2022-09-03T00:27:38.167Z,0.00
2022-09-03T00:28:38.167Z,0.00
2022-09-03T00:29:38.079Z,0.00
2022-09-03T00:30:38.047Z,0.00
2022-09-03T00:31:38.099Z,0.00
2022-09-03T00:32:38.073Z,0.00
2022-09-03T00:33:38.042Z,0.00
2022-09-03T00:34:38.011Z,0.00
2022-09-03T00:35:37.972Z,0.00
2022-09-03T00:36:38.784Z,0.00
2022-09-03T00:37:38.502Z,0.00
2022-09-03T00:38:37.971Z,0.00
2022-09-03T00:39:38.024Z,0.00
2022-09-03T00:40:38.013Z,0.00
2022-09-03T00:41:37.925Z,0.00
2022-09-03T00:42:37.906Z,0.00
2022-09-03T00:43:37.893Z,0.00
2022-09-03T00:44:37.893Z,0.00
2022-09-03T00:45:37.863Z,0.00
2022-09-03T00:46:37.976Z,0.00
2022-09-03T00:47:37.877Z,0.00
2022-09-03T00:48:37.811Z,0.00
2022-09-03T00:49:37.805Z,0.00
2022-09-03T00:50:37.929Z,0.00
2022-09-03T00:51:37.865Z,0.00
2022-09-03T00:52:37.766Z,0.00
2022-09-03T00:53:37.793Z,0.00
2022-09-03T00:54:38.586Z,0.00
2022-09-03T00:55:37.793Z,0.00
2022-09-03T00:56:38.909Z,0.00
2022-09-03T00:57:37.772Z,0.00
2022-09-03T00:58:37.709Z,0.00
2022-09-03T00:59:37.681Z,0.00
2022-09-03T01:00:37.667Z,0.00
2022-09-03T01:01:37.778Z,0.00
2022-09-03T01:02:37.835Z,0.00
2022-09-03T01:03:37.705Z,0.00
2022-09-03T01:04:37.647Z,0.00
2022-09-03T01:05:37.590Z,0.00
2022-09-03T01:06:37.859Z,0.00
2022-09-03T01:07:37.946Z,0.00
2022-09-03T01:08:37.627Z,0.00
2022-09-03T01:09:37.571Z,0.00
2022-09-03T01:10:37.520Z,0.00
2022-09-03T01:11:37.714Z,0.00
2022-09-03T01:12:37.491Z,0.00
2022-09-03T01:13:37.811Z,0.00
2022-09-03T01:14:37.577Z,0.00
2022-09-03T01:15:37.531Z,0.00
2022-09-03T01:16:38.529Z,0.00
2022-09-03T01:17:37.430Z,0.00
2022-09-03T01:18:37.411Z,0.00
2022-09-03T01:19:37.472Z,0.00
2022-09-03T01:20:37.384Z,0.00
2022-09-03T01:21:37.401Z,0.00
2022-09-03T01:22:37.363Z,0.00
2022-09-03T01:23:37.384Z,0.00
2022-09-03T01:24:37.394Z,0.00
2022-09-03T01:25:37.356Z,0.00
2022-09-03T01:26:37.648Z,0.00
2022-09-03T01:27:37.339Z,0.00
2022-09-03T01:28:38.395Z,0.00
2022-09-03T01:29:39.627Z,0.00
2022-09-03T01:30:37.335Z,0.00
2022-09-03T01:31:37.542Z,0.00
2022-09-03T01:32:37.267Z,0.00
2022-09-03T01:33:37.234Z,0.00
2022-09-03T01:34:37.250Z,0.00
2022-09-03T01:35:37.235Z,0.00
2022-09-03T01:36:37.456Z,0.00
2022-09-03T01:37:37.175Z,0.00
2022-09-03T01:38:37.155Z,0.00
2022-09-03T01:39:37.177Z,0.00
2022-09-03T01:40:37.661Z,0.00
2022-09-03T01:41:37.266Z,0.00
2022-09-03T01:42:37.127Z,0.00
2022-09-03T01:43:39.189Z,0.00
2022-09-03T01:44:37.100Z,0.00
2022-09-03T01:45:37.259Z,0.00
2022-09-03T01:46:37.560Z,0.00
2022-09-03T01:47:37.054Z,0.00
2022-09-03T01:48:37.139Z,0.00
2022-09-03T01:49:37.057Z,0.00
2022-09-03T01:50:37.070Z,0.00
2022-09-03T01:51:36.997Z,0.00
2022-09-03T01:52:37.031Z,0.00
2022-09-03T01:53:37.009Z,0.00
2022-09-03T01:54:36.993Z,0.00
2022-09-03T01:55:36.945Z,0.00
2022-09-03T01:56:37.762Z,0.00
2022-09-03T01:57:37.488Z,0.00
2022-09-03T01:58:37.037Z,0.00
2022-09-03T01:59:37.461Z,0.00
2022-09-03T02:00:36.914Z,0.00
2022-09-03T02:01:37.916Z,0.00
2022-09-03T02:02:37.092Z,0.00
2022-09-03T02:03:40.958Z,0.00
2022-09-03T02:04:36.843Z,0.00
2022-09-03T02:05:36.823Z,0.00
2022-09-03T02:06:36.989Z,0.00
2022-09-03T02:07:36.881Z,0.00
2022-09-03T02:08:36.813Z,0.00
2022-09-03T02:09:36.813Z,0.00
2022-09-03T02:10:36.797Z,0.00
2022-09-03T02:11:36.840Z,0.00
2022-09-03T02:12:36.741Z,0.00
2022-09-03T02:13:36.805Z,0.00
2022-09-03T02:14:36.757Z,0.00
2022-09-03T02:15:36.757Z,0.00
2022-09-03T02:16:36.732Z,0.00
2022-09-03T02:17:36.918Z,0.00
2022-09-03T02:18:36.939Z,0.00
2022-09-03T02:19:36.658Z,0.00
2022-09-03T02:20:36.619Z,0.00
2022-09-03T02:21:36.676Z,0.00
2022-09-03T02:22:36.607Z,0.00
2022-09-03T02:23:37.726Z,0.00
2022-09-03T02:24:36.720Z,0.00
2022-09-03T02:25:36.598Z,0.00
2022-09-03T02:26:37.438Z,0.00
2022-09-03T02:27:36.568Z,0.00
2022-09-03T02:28:36.718Z,0.00
2022-09-03T02:29:36.498Z,0.00
2022-09-03T02:30:36.587Z,0.00
2022-09-03T02:31:36.910Z,0.00
2022-09-03T02:32:36.684Z,0.00
2022-09-03T02:33:36.545Z,0.00
2022-09-03T02:34:36.529Z,0.00
2022-09-03T02:35:37.261Z,0.00
2022-09-03T02:36:36.489Z,0.00
2022-09-03T02:37:36.741Z,0.00
2022-09-03T02:38:36.400Z,0.00
2022-09-03T02:39:39.390Z,0.00
2022-09-03T02:40:36.460Z,0.00
2022-09-03T02:41:36.430Z,0.00
2022-09-03T02:42:36.328Z,0.00
2022-09-03T02:43:36.351Z,0.00
2022-09-03T02:44:37.668Z,0.00
2022-09-03T02:45:36.383Z,0.00
2022-09-03T02:46:36.416Z,0.00
2022-09-03T02:47:36.305Z,0.00
2022-09-03T02:48:36.261Z,0.00
2022-09-03T02:49:36.465Z,0.00
2022-09-03T02:50:36.274Z,0.00
2022-09-03T02:51:36.238Z,0.00
2022-09-03T02:52:36.307Z,0.00
2022-09-03T02:53:36.228Z,0.00
2022-09-03T02:54:36.246Z,0.00
2022-09-03T02:55:36.254Z,0.00
2022-09-03T02:56:37.115Z,0.00
2022-09-03T02:57:38.114Z,0.00
2022-09-03T02:58:36.207Z,0.00
2022-09-03T02:59:36.133Z,0.00
2022-09-03T03:00:37.095Z,0.00
2022-09-03T03:01:36.366Z,0.00
2022-09-03T03:02:36.367Z,0.00
2022-09-03T03:03:36.114Z,0.00
2022-09-03T03:04:36.050Z,0.00
2022-09-03T03:05:36.467Z,0.00
2022-09-03T03:06:36.076Z,0.00
2022-09-03T03:07:37.087Z,0.00
2022-09-03T03:08:36.029Z,0.00
2022-09-03T03:09:36.001Z,0.00
2022-09-03T03:10:36.051Z,0.00
2022-09-03T03:11:36.154Z,0.00
2022-09-03T03:12:35.970Z,0.00
2022-09-03T03:13:35.971Z,0.00
2022-09-03T03:14:36.041Z,0.00
2022-09-03T03:15:36.145Z,0.00
2022-09-03T03:16:36.108Z,0.00
2022-09-03T03:17:36.293Z,0.00
2022-09-03T03:18:36.951Z,0.00
2022-09-03T03:19:35.942Z,0.00
2022-09-03T03:20:35.864Z,0.00
2022-09-03T03:21:35.853Z,0.00
2022-09-03T03:22:44.615Z,0.00
2022-09-03T03:23:36.011Z,0.00
2022-09-03T03:24:35.861Z,0.00
2022-09-03T03:25:36.888Z,0.00
2022-09-03T03:26:35.783Z,0.00
2022-09-03T03:27:36.706Z,0.00
2022-09-03T03:28:35.766Z,0.00
2022-09-03T03:29:35.786Z,0.00
2022-09-03T03:30:35.761Z,0.00
2022-09-03T03:31:35.705Z,0.00
2022-09-03T03:32:35.803Z,0.00
2022-09-03T03:33:36.250Z,0.00
2022-09-03T03:34:35.795Z,0.00
2022-09-03T03:35:35.698Z,0.00
2022-09-03T03:36:36.864Z,0.00
2022-09-03T03:37:36.332Z,0.00
2022-09-03T03:38:35.663Z,0.00
2022-09-03T03:39:35.934Z,0.00
2022-09-03T03:40:36.474Z,0.00
2022-09-03T03:41:35.596Z,0.00
2022-09-03T03:42:35.562Z,0.00
2022-09-03T03:43:35.576Z,0.00
2022-09-03T03:44:36.595Z,0.00
2022-09-03T03:45:36.558Z,0.00
2022-09-03T03:46:36.418Z,0.00
2022-09-03T03:47:35.547Z,0.00
2022-09-03T03:48:36.482Z,0.00
2022-09-03T03:49:35.561Z,0.00
2022-09-03T03:50:35.510Z,0.00
2022-09-03T03:51:35.491Z,0.00
2022-09-03T03:52:36.312Z,0.00
2022-09-03T03:53:35.449Z,0.00
2022-09-03T03:54:35.461Z,0.00
2022-09-03T03:55:36.880Z,0.00
2022-09-03T03:56:35.790Z,4.00
2022-09-03T03:57:35.620Z,0.00
2022-09-03T03:58:35.401Z,0.00
2022-09-03T03:59:35.456Z,4.00
2022-09-03T04:00:36.093Z,0.00
2022-09-03T04:01:36.543Z,4.00
2022-09-03T04:02:39.178Z,4.00
2022-09-03T04:03:35.329Z,4.00
2022-09-03T04:04:35.790Z,4.00
2022-09-03T04:05:35.443Z,4.00
2022-09-03T04:06:35.279Z,8.00
2022-09-03T04:07:35.394Z,8.00
2022-09-03T04:08:35.422Z,12.00
2022-09-03T04:09:35.243Z,16.00
2022-09-03T04:10:35.241Z,16.00
2022-09-03T04:11:35.193Z,20.00
2022-09-03T04:12:35.240Z,24.00
2022-09-03T04:13:36.385Z,28.00
2022-09-03T04:14:35.301Z,32.00
2022-09-03T04:15:35.192Z,36.00
2022-09-03T04:16:36.122Z,44.00
2022-09-03T04:17:35.142Z,52.00
2022-09-03T04:18:35.653Z,60.00
2022-09-03T04:19:35.089Z,68.00
2022-09-03T04:20:35.109Z,80.00
2022-09-03T04:21:35.066Z,88.00
2022-09-03T04:22:36.035Z,100.00
2022-09-03T04:23:35.154Z,112.00
2022-09-03T04:24:35.117Z,132.00
2022-09-03T04:25:35.012Z,144.00
2022-09-03T04:26:35.033Z,164.00
2022-09-03T04:27:34.964Z,180.00
2022-09-03T04:28:34.985Z,196.00
2022-09-03T04:29:35.022Z,220.00
2022-09-03T04:30:34.964Z,244.00
2022-09-03T04:31:34.986Z,268.00
2022-09-03T04:32:35.005Z,292.00
2022-09-03T04:33:35.033Z,316.00
2022-09-03T04:34:35.005Z,344.00
2022-09-03T04:35:37.306Z,376.00
2022-09-03T04:36:35.064Z,408.00
2022-09-03T04:37:36.313Z,440.00
2022-09-03T04:38:36.297Z,472.00
2022-09-03T04:39:34.897Z,504.00
2022-09-03T04:40:35.841Z,540.00
2022-09-03T04:41:34.841Z,576.00
2022-09-03T04:42:34.809Z,612.00
2022-09-03T04:43:35.553Z,652.00
2022-09-03T04:44:34.777Z,688.00
2022-09-03T04:45:34.788Z,732.00
2022-09-03T04:46:34.768Z,772.00
2022-09-03T04:47:36.661Z,812.00
2022-09-03T04:48:34.968Z,852.00
2022-09-03T04:49:35.051Z,896.00
2022-09-03T04:50:34.757Z,936.00
2022-09-03T04:51:35.681Z,980.00
2022-09-03T04:52:35.560Z,1020.00
2022-09-03T04:53:34.638Z,1056.00
2022-09-03T04:54:34.641Z,1100.00
2022-09-03T04:55:35.425Z,1140.00
2022-09-03T04:56:34.842Z,1180.00
2022-09-03T04:57:34.756Z,1224.00
2022-09-03T04:58:34.592Z,1264.00
2022-09-03T04:59:34.569Z,1308.00
2022-09-03T05:00:34.589Z,1344.00
2022-09-03T05:01:34.661Z,1388.00
2022-09-03T05:02:35.806Z,1428.00
2022-09-03T05:03:34.876Z,1468.00
2022-09-03T05:04:35.102Z,1512.00
2022-09-03T05:05:34.693Z,1556.00
2022-09-03T05:06:35.383Z,1588.00
2022-09-03T05:07:34.509Z,1620.00
2022-09-03T05:08:34.448Z,1652.00
2022-09-03T05:09:34.579Z,1684.00
2022-09-03T05:10:34.590Z,1724.00
2022-09-03T05:11:34.455Z,1760.00
2022-09-03T05:12:34.384Z,1796.00
2022-09-03T05:13:34.357Z,1832.00
2022-09-03T05:14:34.358Z,1864.00
2022-09-03T05:15:34.371Z,1896.00
2022-09-03T05:16:34.497Z,1928.00
2022-09-03T05:17:37.668Z,1960.00
2022-09-03T05:18:34.294Z,1992.00
2022-09-03T05:19:34.348Z,2020.00
2022-09-03T05:20:34.307Z,2052.00
2022-09-03T05:21:34.295Z,2080.00
2022-09-03T05:22:36.272Z,2108.00
2022-09-03T05:23:37.554Z,2136.00
2022-09-03T05:24:34.269Z,2168.00
2022-09-03T05:25:34.239Z,2188.00
2022-09-03T05:26:34.207Z,2216.00
2022-09-03T05:27:34.271Z,2244.00
2022-09-03T05:28:34.198Z,2272.00
2022-09-03T05:29:34.157Z,2292.00
2022-09-03T05:30:34.196Z,2320.00
2022-09-03T05:31:34.241Z,2344.00
2022-09-03T05:32:34.255Z,2372.00
2022-09-03T05:33:34.541Z,2392.00
2022-09-03T05:34:34.100Z,2408.00
2022-09-03T05:35:34.070Z,2424.00
2022-09-03T05:36:35.534Z,2448.00
2022-09-03T05:37:34.114Z,2468.00
2022-09-03T05:38:34.160Z,2492.00
2022-09-03T05:39:34.067Z,2516.00
2022-09-03T05:40:34.031Z,2536.00
2022-09-03T05:41:34.025Z,2568.00
2022-09-03T05:42:34.010Z,2608.00
2022-09-03T05:43:34.011Z,2644.00
2022-09-03T05:44:33.975Z,2672.00
2022-09-03T05:45:34.066Z,2700.00
2022-09-03T05:46:34.014Z,2740.00
2022-09-03T05:47:34.913Z,2780.00
2022-09-03T05:48:34.021Z,2844.00
2022-09-03T05:49:33.915Z,2924.00
2022-09-03T05:50:33.933Z,2980.00
2022-09-03T05:51:33.898Z,3008.00
2022-09-03T05:52:33.880Z,3032.00
2022-09-03T05:53:33.836Z,3080.00
2022-09-03T05:54:33.847Z,3188.00
2022-09-03T05:55:34.786Z,3320.00
2022-09-03T05:56:33.809Z,3484.00
2022-09-03T05:57:33.797Z,3500.00
2022-09-03T05:58:33.845Z,3448.00
2022-09-03T05:59:33.919Z,3408.00
2022-09-03T06:00:33.796Z,3408.00
2022-09-03T06:01:33.758Z,3476.00
2022-09-03T06:02:33.949Z,3588.00
2022-09-03T06:03:33.795Z,3720.00
2022-09-03T06:04:33.714Z,3780.00
2022-09-03T06:05:33.690Z,3732.00
2022-09-03T06:06:33.865Z,3564.00
2022-09-03T06:07:33.699Z,3524.00
2022-09-03T06:08:34.563Z,3508.00
2022-09-03T06:09:33.679Z,3496.00
2022-09-03T06:10:40.663Z,3492.00
2022-09-03T06:11:34.659Z,3484.00
2022-09-03T06:12:33.617Z,3484.00
2022-09-03T06:13:33.575Z,3540.00
2022-09-03T06:14:33.579Z,3688.00
2022-09-03T06:15:33.549Z,3752.00
2022-09-03T06:16:33.630Z,3804.00
2022-09-03T06:17:33.543Z,3808.00
2022-09-03T06:18:33.550Z,3832.00
2022-09-03T06:19:34.525Z,3764.00
2022-09-03T06:20:36.966Z,3676.00
2022-09-03T06:21:33.563Z,3580.00
2022-09-03T06:22:33.489Z,3512.00
2022-09-03T06:23:33.444Z,3488.00
2022-09-03T06:24:33.509Z,3472.00
2022-09-03T06:25:33.539Z,3460.00
2022-09-03T06:26:34.362Z,3460.00
2022-09-03T06:27:33.435Z,3464.00
2022-09-03T06:28:33.422Z,3460.00
2022-09-03T06:29:33.441Z,3464.00
2022-09-03T06:30:33.369Z,3476.00
2022-09-03T06:31:33.404Z,3488.00
2022-09-03T06:32:34.033Z,3492.00
2022-09-03T06:33:33.382Z,3500.00
2022-09-03T06:34:33.299Z,3496.00
2022-09-03T06:35:35.823Z,3492.00
2022-09-03T06:36:34.924Z,3492.00
2022-09-03T06:37:33.307Z,3504.00
2022-09-03T06:38:33.294Z,3508.00
2022-09-03T06:39:33.312Z,3524.00
2022-09-03T06:40:33.261Z,3528.00
2022-09-03T06:41:33.243Z,3528.00
2022-09-03T06:42:33.214Z,3524.00
2022-09-03T06:43:33.193Z,3520.00
2022-09-03T06:44:33.186Z,3520.00
2022-09-03T06:45:33.281Z,3508.00
2022-09-03T06:46:33.292Z,3504.00
2022-09-03T06:47:33.359Z,3492.00
2022-09-03T06:48:33.154Z,3492.00
2022-09-03T06:49:33.140Z,3496.00
2022-09-03T06:50:34.731Z,3508.00
2022-09-03T06:51:33.133Z,3516.00
2022-09-03T06:52:33.074Z,3524.00
2022-09-03T06:53:33.102Z,3528.00
2022-09-03T06:54:33.135Z,3536.00
2022-09-03T06:55:33.099Z,3540.00
2022-09-03T06:56:37.353Z,3540.00
2022-09-03T06:57:34.061Z,3536.00
2022-09-03T06:58:32.998Z,3536.00
2022-09-03T06:59:33.011Z,3536.00
2022-09-03T07:00:33.077Z,3532.00
2022-09-03T07:01:33.177Z,3536.00
2022-09-03T07:02:32.970Z,3540.00
2022-09-03T07:03:32.957Z,3548.00
2022-09-03T07:04:32.955Z,3556.00
2022-09-03T07:05:32.929Z,3548.00
2022-09-03T07:06:34.109Z,3552.00
2022-09-03T07:07:32.926Z,3552.00
2022-09-03T07:08:32.902Z,3556.00
2022-09-03T07:09:32.879Z,3560.00
2022-09-03T07:10:32.845Z,3560.00
2022-09-03T07:11:32.826Z,3556.00
2022-09-03T07:12:32.823Z,3556.00
2022-09-03T07:13:32.837Z,3560.00
2022-09-03T07:14:32.869Z,3564.00
2022-09-03T07:15:32.771Z,3568.00
2022-09-03T07:16:33.764Z,3564.00
2022-09-03T07:17:33.102Z,3560.00
2022-09-03T07:18:32.785Z,3568.00
2022-09-03T07:19:32.714Z,3576.00
2022-09-03T07:20:32.786Z,3576.00
2022-09-03T07:21:32.713Z,3576.00
2022-09-03T07:22:32.684Z,3580.00
2022-09-03T07:23:32.685Z,3580.00
2022-09-03T07:24:32.679Z,3588.00
2022-09-03T07:25:32.639Z,3592.00
2022-09-03T07:26:33.626Z,3596.00
2022-09-03T07:27:32.818Z,3600.00
2022-09-03T07:28:32.629Z,3608.00
2022-09-03T07:29:32.649Z,3608.00
2022-09-03T07:30:32.964Z,3612.00
2022-09-03T07:31:32.620Z,3612.00
2022-09-03T07:32:32.599Z,3624.00
2022-09-03T07:33:33.874Z,3628.00
2022-09-03T07:34:32.570Z,3632.00
2022-09-03T07:35:32.537Z,3632.00
2022-09-03T07:36:35.237Z,3624.00
2022-09-03T07:37:32.640Z,3632.00
2022-09-03T07:38:32.481Z,3640.00
2022-09-03T07:39:32.591Z,3644.00
2022-09-03T07:40:32.449Z,3644.00
2022-09-03T07:41:32.467Z,3648.00
2022-09-03T07:42:32.417Z,3644.00
2022-09-03T07:43:32.406Z,3648.00
2022-09-03T07:44:32.420Z,3664.00
2022-09-03T07:45:32.380Z,3672.00
2022-09-03T07:46:32.417Z,3676.00
2022-09-03T07:47:32.402Z,3680.00
2022-09-03T07:48:37.174Z,3684.00
2022-09-03T07:49:33.377Z,3688.00
2022-09-03T07:50:32.363Z,3692.00
2022-09-03T07:51:32.322Z,3700.00
2022-09-03T07:52:32.302Z,3712.00
2022-09-03T07:53:32.302Z,3716.00
2022-09-03T07:54:32.320Z,3728.00
2022-09-03T07:55:32.315Z,3732.00
2022-09-03T07:56:33.245Z,3736.00
2022-09-03T07:57:32.254Z,3744.00
2022-09-03T07:58:32.266Z,3756.00
2022-09-03T07:59:32.243Z,3764.00
2022-09-03T08:00:32.237Z,3764.00
2022-09-03T08:01:32.267Z,3764.00
2022-09-03T08:02:32.192Z,3776.00
2022-09-03T08:03:32.193Z,3772.00
2022-09-03T08:04:32.129Z,3776.00
2022-09-03T08:05:32.205Z,3780.00
2022-09-03T08:06:32.157Z,3788.00
2022-09-03T08:07:32.128Z,3796.00
2022-09-03T08:08:35.488Z,3812.00
2022-09-03T08:09:32.105Z,3824.00
2022-09-03T08:10:32.160Z,3832.00
2022-09-03T08:11:32.034Z,3856.00
2022-09-03T08:12:32.038Z,3864.00
2022-09-03T08:13:32.039Z,3872.00
2022-09-03T08:14:32.039Z,3880.00
2022-09-03T08:15:31.985Z,3876.00
2022-09-03T08:16:32.203Z,3876.00
2022-09-03T08:17:31.959Z,3876.00
2022-09-03T08:18:31.949Z,3876.00
2022-09-03T08:19:31.942Z,3888.00
2022-09-03T08:20:31.929Z,3896.00
2022-09-03T08:21:31.932Z,3900.00
2022-09-03T08:22:31.903Z,3904.00
2022-09-03T08:23:31.956Z,3904.00
2022-09-03T08:24:31.872Z,3904.00
2022-09-03T08:25:31.914Z,3900.00
2022-09-03T08:26:33.079Z,3900.00
2022-09-03T08:27:31.853Z,3900.00
2022-09-03T08:28:31.820Z,3896.00
2022-09-03T08:29:31.811Z,3892.00
2022-09-03T08:30:31.871Z,3896.00
2022-09-03T08:31:31.825Z,3888.00
2022-09-03T08:32:31.885Z,3888.00
2022-09-03T08:33:31.761Z,3892.00
2022-09-03T08:34:31.926Z,3892.00
2022-09-03T08:35:31.745Z,3900.00
2022-09-03T08:36:31.735Z,3908.00
2022-09-03T08:37:31.826Z,3912.00
2022-09-03T08:38:31.736Z,3912.00
2022-09-03T08:39:31.733Z,3908.00
2022-09-03T08:40:31.700Z,3904.00
2022-09-03T08:41:31.697Z,3904.00
2022-09-03T08:42:31.715Z,3904.00
2022-09-03T08:43:31.617Z,3904.00
2022-09-03T08:44:31.617Z,3920.00
2022-09-03T08:45:31.677Z,3916.00
2022-09-03T08:46:31.626Z,3912.00
2022-09-03T08:47:31.727Z,3916.00
2022-09-03T08:48:31.590Z,3920.00
2022-09-03T08:49:31.593Z,3924.00
2022-09-03T08:50:31.567Z,3920.00
2022-09-03T08:51:31.545Z,3916.00
2022-09-03T08:52:31.534Z,3928.00
2022-09-03T08:53:31.519Z,3932.00
2022-09-03T08:54:31.501Z,3932.00
2022-09-03T08:55:31.502Z,3936.00
2022-09-03T08:56:31.484Z,3940.00
2022-09-03T08:57:31.477Z,3948.00
2022-09-03T08:58:31.465Z,3968.00
2022-09-03T08:59:32.742Z,3968.00
2022-09-03T09:00:31.399Z,3964.00
2022-09-03T09:01:31.602Z,3968.00
2022-09-03T09:02:31.486Z,3964.00
2022-09-03T09:03:31.501Z,3956.00
2022-09-03T09:04:31.402Z,3952.00
2022-09-03T09:05:31.367Z,3952.00
2022-09-03T09:06:31.375Z,3944.00
2022-09-03T09:07:31.335Z,3940.00
2022-09-03T09:08:31.340Z,3940.00
2022-09-03T09:09:31.378Z,3940.00
2022-09-03T09:10:31.299Z,3944.00
2022-09-03T09:11:31.266Z,3948.00
2022-09-03T09:12:37.604Z,3940.00
2022-09-03T09:13:32.236Z,3940.00
2022-09-03T09:14:31.262Z,3944.00
2022-09-03T09:15:31.223Z,3948.00
2022-09-03T09:16:31.700Z,3956.00
2022-09-03T09:17:31.299Z,3956.00
2022-09-03T09:18:31.209Z,3960.00
2022-09-03T09:19:31.168Z,3952.00
2022-09-03T09:20:31.200Z,3948.00
2022-09-03T09:21:31.171Z,3960.00
2022-09-03T09:22:31.119Z,3952.00
2022-09-03T09:23:31.115Z,3956.00
2022-09-03T09:24:31.092Z,3972.00
2022-09-03T09:25:31.100Z,3984.00
2022-09-03T09:26:31.323Z,3988.00
2022-09-03T09:27:31.061Z,3988.00
2022-09-03T09:28:31.054Z,3988.00
2022-09-03T09:29:31.086Z,3988.00
2022-09-03T09:30:31.032Z,3988.00
2022-09-03T09:31:31.191Z,3976.00
2022-09-03T09:32:30.991Z,3976.00
2022-09-03T09:33:31.009Z,3972.00
2022-09-03T09:34:30.970Z,3964.00
2022-09-03T09:35:31.241Z,3948.00
2022-09-03T09:36:31.998Z,3928.00
2022-09-03T09:37:30.976Z,3916.00
2022-09-03T09:38:30.942Z,3920.00
2022-09-03T09:39:32.151Z,3916.00
2022-09-03T09:40:31.215Z,3904.00
2022-09-03T09:41:30.933Z,3900.00
2022-09-03T09:42:30.882Z,3900.00
2022-09-03T09:43:30.970Z,3912.00
2022-09-03T09:44:30.957Z,3912.00
2022-09-03T09:45:30.814Z,3912.00
2022-09-03T09:46:30.899Z,3916.00
2022-09-03T09:47:30.812Z,3900.00
2022-09-03T09:48:30.796Z,3888.00
2022-09-03T09:49:30.842Z,3884.00
2022-09-03T09:50:30.785Z,3884.00
2022-09-03T09:51:30.841Z,3876.00
2022-09-03T09:52:30.800Z,3876.00
2022-09-03T09:53:30.766Z,3868.00
2022-09-03T09:54:30.717Z,3876.00
2022-09-03T09:55:30.689Z,3884.00
2022-09-03T09:56:31.366Z,3888.00
2022-09-03T09:57:30.670Z,3892.00
2022-09-03T09:58:30.676Z,3896.00
2022-09-03T09:59:30.671Z,3888.00
2022-09-03T10:00:30.657Z,3896.00
2022-09-03T10:01:30.654Z,3924.00
2022-09-03T10:02:30.757Z,3948.00
2022-09-03T10:03:30.612Z,3940.00
2022-09-03T10:04:33.183Z,3920.00
2022-09-03T10:05:30.681Z,3924.00
2022-09-03T10:06:30.562Z,3944.00
2022-09-03T10:07:30.635Z,3944.00
2022-09-03T10:08:30.554Z,3956.00
2022-09-03T10:09:31.395Z,3952.00
2022-09-03T10:10:30.563Z,3960.00
2022-09-03T10:11:30.512Z,4056.00
2022-09-03T10:12:30.814Z,4232.00
2022-09-03T10:13:30.484Z,4024.00
2022-09-03T10:14:30.446Z,3988.00
2022-09-03T10:15:30.510Z,4004.00
2022-09-03T10:16:30.422Z,4012.00
2022-09-03T10:17:36.707Z,4036.00
2022-09-03T10:18:31.708Z,4036.00
2022-09-03T10:19:30.421Z,4044.00
2022-09-03T10:20:30.682Z,4080.00
2022-09-03T10:21:30.418Z,4072.00
2022-09-03T10:22:32.350Z,4052.00
2022-09-03T10:23:31.497Z,4020.00
2022-09-03T10:24:30.344Z,4036.00
2022-09-03T10:25:30.322Z,4036.00
2022-09-03T10:26:32.060Z,4044.00
2022-09-03T10:27:32.150Z,4068.00
2022-09-03T10:28:30.302Z,4100.00
2022-09-03T10:29:30.378Z,4140.00
2022-09-03T10:30:30.293Z,4164.00
2022-09-03T10:31:30.333Z,4160.00
2022-09-03T10:32:38.964Z,4136.00
2022-09-03T10:33:31.284Z,3888.00
2022-09-03T10:34:30.209Z,4088.00
2022-09-03T10:35:30.222Z,4080.00
2022-09-03T10:36:31.354Z,4076.00
2022-09-03T10:37:30.185Z,4092.00
2022-09-03T10:38:30.182Z,4108.00
2022-09-03T10:39:30.191Z,4092.00
2022-09-03T10:40:30.215Z,4088.00
2022-09-03T10:41:30.445Z,4092.00
2022-09-03T10:42:30.107Z,4108.00
2022-09-03T10:43:30.136Z,4128.00
2022-09-03T10:44:30.137Z,4132.00
2022-09-03T10:45:30.077Z,4188.00
2022-09-03T10:46:30.946Z,4208.00
2022-09-03T10:47:30.028Z,4176.00
2022-09-03T10:48:30.040Z,4192.00
2022-09-03T10:49:30.150Z,4200.00
2022-09-03T10:50:30.140Z,4204.00
2022-09-03T10:51:29.958Z,4172.00
2022-09-03T10:52:29.947Z,4136.00
2022-09-03T10:53:29.937Z,4140.00
2022-09-03T10:54:29.930Z,4196.00
2022-09-03T10:55:29.929Z,4152.00
2022-09-03T10:56:30.969Z,4160.00
2022-09-03T10:57:29.923Z,4168.00
2022-09-03T10:58:29.873Z,4160.00
2022-09-03T10:59:29.865Z,4160.00
2022-09-03T11:00:29.847Z,4152.00
2022-09-03T11:01:29.941Z,4164.00
2022-09-03T11:02:29.839Z,4180.00
2022-09-03T11:03:29.834Z,4196.00
2022-09-03T11:04:29.795Z,4108.00
2022-09-03T11:05:29.861Z,4004.00
2022-09-03T11:06:31.031Z,3916.00
2022-09-03T11:07:29.856Z,4100.00
2022-09-03T11:08:29.834Z,4184.00
2022-09-03T11:09:29.777Z,4220.00
2022-09-03T11:10:30.965Z,4228.00
2022-09-03T11:11:29.762Z,4220.00
2022-09-03T11:12:29.697Z,4204.00
2022-09-03T11:13:29.756Z,4216.00
2022-09-03T11:14:29.707Z,4260.00
2022-09-03T11:15:29.741Z,4216.00
2022-09-03T11:16:29.687Z,4368.00
2022-09-03T11:17:29.728Z,5068.00
2022-09-03T11:18:29.648Z,5048.00
2022-09-03T11:19:29.728Z,4668.00
2022-09-03T11:20:29.598Z,4468.00
2022-09-03T11:21:29.579Z,4360.00
2022-09-03T11:22:29.568Z,4220.00
2022-09-03T11:23:29.599Z,4288.00
2022-09-03T11:24:29.548Z,4368.00
2022-09-03T11:25:29.521Z,4428.00
2022-09-03T11:26:31.481Z,4496.00
2022-09-03T11:27:29.500Z,4540.00
2022-09-03T11:28:29.558Z,4572.00
2022-09-03T11:29:29.521Z,4556.00
2022-09-03T11:30:29.481Z,4520.00
2022-09-03T11:31:29.954Z,4572.00
2022-09-03T11:32:29.498Z,4636.00
2022-09-03T11:33:29.454Z,4632.00
2022-09-03T11:34:31.983Z,4568.00
2022-09-03T11:35:29.459Z,4568.00
2022-09-03T11:36:29.415Z,4644.00
2022-09-03T11:37:29.517Z,4692.00
2022-09-03T11:38:29.429Z,4676.00
2022-09-03T11:39:29.385Z,4784.00
2022-09-03T11:40:29.359Z,4968.00
2022-09-03T11:41:30.017Z,5048.00
2022-09-03T11:42:29.335Z,5128.00
2022-09-03T11:43:29.399Z,5244.00
2022-09-03T11:44:30.086Z,5316.00
2022-09-03T11:45:29.270Z,5340.00
2022-09-03T11:46:29.301Z,5336.00
2022-09-03T11:47:29.288Z,5300.00
2022-09-03T11:48:29.279Z,5380.00
2022-09-03T11:49:29.210Z,5296.00
2022-09-03T11:50:29.220Z,5196.00
2022-09-03T11:51:29.227Z,5184.00
2022-09-03T11:52:29.176Z,5408.00
2022-09-03T11:53:29.241Z,5908.00
2022-09-03T11:54:29.202Z,6384.00
2022-09-03T11:55:29.133Z,6472.00
2022-09-03T11:56:30.571Z,6092.00
2022-09-03T11:57:29.293Z,5836.00
2022-09-03T11:58:29.094Z,5700.00
2022-09-03T11:59:29.244Z,5936.00
2022-09-03T12:00:29.544Z,6212.00
2022-09-03T12:01:29.055Z,6312.00
2022-09-03T12:02:29.181Z,6064.00
2022-09-03T12:03:31.195Z,5836.00
2022-09-03T12:04:29.328Z,5724.00
2022-09-03T12:05:30.547Z,5652.00
2022-09-03T12:06:36.198Z,5292.00
2022-09-03T12:07:29.006Z,5416.00
2022-09-03T12:08:28.959Z,5068.00
2022-09-03T12:09:29.558Z,4748.00
2022-09-03T12:10:28.973Z,4792.00
2022-09-03T12:11:28.957Z,5056.00
2022-09-03T12:12:28.953Z,4972.00
2022-09-03T12:13:29.037Z,4872.00
2022-09-03T12:14:28.887Z,4604.00
2022-09-03T12:15:28.932Z,4520.00
2022-09-03T12:16:29.055Z,4508.00
2022-09-03T12:17:28.849Z,4492.00
2022-09-03T12:18:28.856Z,4404.00
2022-09-03T12:19:28.819Z,4340.00
2022-09-03T12:20:28.831Z,4356.00
2022-09-03T12:21:28.801Z,4628.00
2022-09-03T12:22:29.880Z,4740.00
2022-09-03T12:23:28.800Z,4900.00
2022-09-03T12:24:28.793Z,4952.00
2022-09-03T12:25:28.765Z,4984.00
2022-09-03T12:26:29.422Z,5120.00
2022-09-03T12:27:28.972Z,5224.00
2022-09-03T12:28:28.731Z,5496.00
2022-09-03T12:29:28.803Z,5812.00
2022-09-03T12:30:28.751Z,5508.00